sensor_id;sensor_type;location;lat;lon;timestamp;P1;durP1;ratioP1;P2;durP2;ratioP2
13202;SDS011;6666;51.626;7.530;2023-02-10T00:01:33;35.20;;;15.63;;
13202;SDS011;6666;51.626;7.530;2023-02-10T00:04:01;32.90;;;16.35;;
13202;SDS011;6666;51.626;7.530;2023-02-10T00:06:32;32.10;;;15.70;;
13202;SDS011;6666;51.626;7.530;2023-02-10T00:09:01;35.88;;;16.20;;
13202;SDS011;6666;51.626;7.530;2023-02-10T00:11:30;35.53;;;16.08;;
13202;SDS011;6666;51.626;7.530;2023-02-10T00:14:16;35.88;;;16.13;;
13202;SDS011;6666;51.626;7.530;2023-02-10T00:16:48;33.60;;;15.98;;
13202;SDS011;6666;51.626;7.530;2023-02-10T00:19:16;37.05;;;16.42;;
13202;SDS011;6666;51.626;7.530;2023-02-10T00:21:46;32.55;;;15.68;;
13202;SDS011;6666;51.626;7.530;2023-02-10T00:24:15;31.80;;;15.25;;
13202;SDS011;6666;51.626;7.530;2023-02-10T00:26:43;34.30;;;15.40;;
13202;SDS011;6666;51.626;7.530;2023-02-10T00:29:11;33.40;;;16.80;;
13202;SDS011;6666;51.626;7.530;2023-02-10T00:31:40;34.90;;;15.88;;
13202;SDS011;6666;51.626;7.530;2023-02-10T00:34:12;35.20;;;15.90;;
13202;SDS011;6666;51.626;7.530;2023-02-10T00:36:41;33.47;;;15.48;;
13202;SDS011;6666;51.626;7.530;2023-02-10T00:39:13;33.88;;;15.55;;
13202;SDS011;6666;51.626;7.530;2023-02-10T00:41:42;32.13;;;14.90;;
13202;SDS011;6666;51.626;7.530;2023-02-10T00:44:10;32.38;;;16.00;;
13202;SDS011;6666;51.626;7.530;2023-02-10T00:46:38;31.40;;;15.00;;
13202;SDS011;6666;51.626;7.530;2023-02-10T00:49:08;33.20;;;15.73;;
13202;SDS011;6666;51.626;7.530;2023-02-10T00:51:37;31.98;;;15.30;;
13202;SDS011;6666;51.626;7.530;2023-02-10T00:54:06;32.20;;;15.95;;
13202;SDS011;6666;51.626;7.530;2023-02-10T00:56:37;30.42;;;15.50;;
13202;SDS011;6666;51.626;7.530;2023-02-10T00:59:05;33.08;;;16.05;;
13202;SDS011;6666;51.626;7.530;2023-02-10T01:01:34;38.40;;;15.75;;
13202;SDS011;6666;51.626;7.530;2023-02-10T01:04:02;34.97;;;16.75;;
13202;SDS011;6666;51.626;7.530;2023-02-10T01:06:31;38.20;;;16.55;;
13202;SDS011;6666;51.626;7.530;2023-02-10T01:08:59;33.58;;;15.80;;
13202;SDS011;6666;51.626;7.530;2023-02-10T01:11:27;34.03;;;16.63;;
13202;SDS011;6666;51.626;7.530;2023-02-10T01:13:57;31.43;;;16.47;;
13202;SDS011;6666;51.626;7.530;2023-02-10T01:16:25;34.80;;;16.00;;
13202;SDS011;6666;51.626;7.530;2023-02-10T01:18:54;38.60;;;17.05;;
13202;SDS011;6666;51.626;7.530;2023-02-10T01:21:22;41.00;;;16.55;;
13202;SDS011;6666;51.626;7.530;2023-02-10T01:23:50;32.13;;;15.27;;
13202;SDS011;6666;51.626;7.530;2023-02-10T01:26:18;33.45;;;16.70;;
13202;SDS011;6666;51.626;7.530;2023-02-10T01:28:47;42.72;;;17.27;;
13202;SDS011;6666;51.626;7.530;2023-02-10T01:31:17;41.15;;;18.27;;
13202;SDS011;6666;51.626;7.530;2023-02-10T01:33:49;33.97;;;16.35;;
13202;SDS011;6666;51.626;7.530;2023-02-10T01:36:19;35.35;;;16.60;;
13202;SDS011;6666;51.626;7.530;2023-02-10T01:38:49;37.92;;;16.08;;
13202;SDS011;6666;51.626;7.530;2023-02-10T01:41:19;37.10;;;16.83;;
13202;SDS011;6666;51.626;7.530;2023-02-10T01:43:52;42.17;;;17.10;;
13202;SDS011;6666;51.626;7.530;2023-02-10T01:46:26;33.87;;;16.10;;
13202;SDS011;6666;51.626;7.530;2023-02-10T01:48:55;37.47;;;17.23;;
13202;SDS011;6666;51.626;7.530;2023-02-10T01:51:27;31.33;;;16.10;;
13202;SDS011;6666;51.626;7.530;2023-02-10T01:54:01;33.35;;;16.52;;
13202;SDS011;6666;51.626;7.530;2023-02-10T01:56:30;35.40;;;15.80;;
13202;SDS011;6666;51.626;7.530;2023-02-10T01:59:00;38.83;;;17.33;;
13202;SDS011;6666;51.626;7.530;2023-02-10T02:01:30;35.97;;;16.60;;
13202;SDS011;6666;51.626;7.530;2023-02-10T02:03:59;36.57;;;17.07;;
13202;SDS011;6666;51.626;7.530;2023-02-10T02:06:29;35.23;;;17.40;;
13202;SDS011;6666;51.626;7.530;2023-02-10T02:08:57;36.00;;;17.20;;
13202;SDS011;6666;51.626;7.530;2023-02-10T02:11:27;41.08;;;18.58;;
13202;SDS011;6666;51.626;7.530;2023-02-10T02:14:10;34.55;;;16.88;;
13202;SDS011;6666;51.626;7.530;2023-02-10T02:17:00;36.33;;;17.60;;
13202;SDS011;6666;51.626;7.530;2023-02-10T02:19:41;35.10;;;17.53;;
13202;SDS011;6666;51.626;7.530;2023-02-10T02:22:48;34.80;;;17.13;;
13202;SDS011;6666;51.626;7.530;2023-02-10T02:25:33;36.67;;;16.50;;
13202;SDS011;6666;51.626;7.530;2023-02-10T02:28:20;34.40;;;17.60;;
13202;SDS011;6666;51.626;7.530;2023-02-10T02:34:01;35.83;;;17.67;;
13202;SDS011;6666;51.626;7.530;2023-02-10T02:36:33;37.92;;;17.40;;
13202;SDS011;6666;51.626;7.530;2023-02-10T02:39:07;37.63;;;17.77;;
13202;SDS011;6666;51.626;7.530;2023-02-10T02:41:35;34.95;;;17.40;;
13202;SDS011;6666;51.626;7.530;2023-02-10T02:44:04;34.70;;;17.23;;
13202;SDS011;6666;51.626;7.530;2023-02-10T02:46:36;34.90;;;16.77;;
13202;SDS011;6666;51.626;7.530;2023-02-10T02:49:17;38.00;;;18.40;;
13202;SDS011;6666;51.626;7.530;2023-02-10T02:51:53;39.50;;;18.25;;
13202;SDS011;6666;51.626;7.530;2023-02-10T02:54:29;38.55;;;17.02;;
13202;SDS011;6666;51.626;7.530;2023-02-10T02:57:03;34.35;;;16.50;;
13202;SDS011;6666;51.626;7.530;2023-02-10T02:59:39;36.38;;;18.30;;
13202;SDS011;6666;51.626;7.530;2023-02-10T03:02:13;35.47;;;18.10;;
13202;SDS011;6666;51.626;7.530;2023-02-10T03:04:44;36.40;;;17.83;;
13202;SDS011;6666;51.626;7.530;2023-02-10T03:07:14;38.65;;;18.10;;
13202;SDS011;6666;51.626;7.530;2023-02-10T03:09:43;33.40;;;17.70;;
13202;SDS011;6666;51.626;7.530;2023-02-10T03:12:11;35.15;;;17.98;;
13202;SDS011;6666;51.626;7.530;2023-02-10T03:14:39;39.70;;;18.57;;
13202;SDS011;6666;51.626;7.530;2023-02-10T03:17:08;39.65;;;18.58;;
13202;SDS011;6666;51.626;7.530;2023-02-10T03:19:36;38.67;;;18.67;;
13202;SDS011;6666;51.626;7.530;2023-02-10T03:22:06;43.92;;;18.85;;
13202;SDS011;6666;51.626;7.530;2023-02-10T03:24:34;36.75;;;17.33;;
13202;SDS011;6666;51.626;7.530;2023-02-10T03:27:02;42.72;;;18.17;;
13202;SDS011;6666;51.626;7.530;2023-02-10T03:29:32;36.67;;;18.35;;
13202;SDS011;6666;51.626;7.530;2023-02-10T03:32:00;35.87;;;17.60;;
13202;SDS011;6666;51.626;7.530;2023-02-10T03:34:30;41.53;;;18.50;;
13202;SDS011;6666;51.626;7.530;2023-02-10T03:36:58;40.58;;;18.85;;
13202;SDS011;6666;51.626;7.530;2023-02-10T03:39:28;36.90;;;19.02;;
13202;SDS011;6666;51.626;7.530;2023-02-10T03:41:56;39.08;;;18.08;;
13202;SDS011;6666;51.626;7.530;2023-02-10T03:44:25;35.10;;;17.92;;
13202;SDS011;6666;51.626;7.530;2023-02-10T03:46:53;40.00;;;18.33;;
13202;SDS011;6666;51.626;7.530;2023-02-10T03:49:22;37.83;;;17.83;;
13202;SDS011;6666;51.626;7.530;2023-02-10T03:51:50;33.57;;;17.03;;
13202;SDS011;6666;51.626;7.530;2023-02-10T03:54:19;39.30;;;18.33;;
13202;SDS011;6666;51.626;7.530;2023-02-10T03:56:48;40.42;;;18.30;;
13202;SDS011;6666;51.626;7.530;2023-02-10T03:59:16;39.08;;;18.15;;
13202;SDS011;6666;51.626;7.530;2023-02-10T04:01:45;43.92;;;20.58;;
13202;SDS011;6666;51.626;7.530;2023-02-10T04:04:14;43.33;;;18.70;;
13202;SDS011;6666;51.626;7.530;2023-02-10T04:06:42;40.42;;;19.27;;
13202;SDS011;6666;51.626;7.530;2023-02-10T04:09:10;39.95;;;19.27;;
13202;SDS011;6666;51.626;7.530;2023-02-10T04:11:38;37.97;;;19.75;;
13202;SDS011;6666;51.626;7.530;2023-02-10T04:14:08;39.22;;;18.10;;
13202;SDS011;6666;51.626;7.530;2023-02-10T04:16:37;38.97;;;18.95;;
13202;SDS011;6666;51.626;7.530;2023-02-10T04:19:05;41.67;;;19.38;;
13202;SDS011;6666;51.626;7.530;2023-02-10T04:21:33;43.55;;;19.02;;
13202;SDS011;6666;51.626;7.530;2023-02-10T04:24:02;43.75;;;19.20;;
13202;SDS011;6666;51.626;7.530;2023-02-10T04:26:30;39.03;;;19.23;;
13202;SDS011;6666;51.626;7.530;2023-02-10T04:28:59;36.77;;;18.53;;
13202;SDS011;6666;51.626;7.530;2023-02-10T04:31:29;39.15;;;18.60;;
13202;SDS011;6666;51.626;7.530;2023-02-10T04:33:58;39.95;;;19.40;;
13202;SDS011;6666;51.626;7.530;2023-02-10T04:36:26;39.30;;;18.67;;
13202;SDS011;6666;51.626;7.530;2023-02-10T04:38:55;39.42;;;19.17;;
13202;SDS011;6666;51.626;7.530;2023-02-10T04:41:23;40.58;;;18.92;;
13202;SDS011;6666;51.626;7.530;2023-02-10T04:43:51;35.45;;;17.73;;
13202;SDS011;6666;51.626;7.530;2023-02-10T04:46:19;42.63;;;19.45;;
13202;SDS011;6666;51.626;7.530;2023-02-10T04:48:49;36.85;;;18.23;;
13202;SDS011;6666;51.626;7.530;2023-02-10T04:51:17;42.30;;;18.58;;
13202;SDS011;6666;51.626;7.530;2023-02-10T04:53:46;43.90;;;18.98;;
13202;SDS011;6666;51.626;7.530;2023-02-10T04:56:14;44.55;;;19.00;;
13202;SDS011;6666;51.626;7.530;2023-02-10T04:58:43;42.03;;;19.02;;
13202;SDS011;6666;51.626;7.530;2023-02-10T05:01:11;44.58;;;18.65;;
13202;SDS011;6666;51.626;7.530;2023-02-10T05:03:39;39.25;;;19.35;;
13202;SDS011;6666;51.626;7.530;2023-02-10T05:06:09;42.40;;;20.83;;
13202;SDS011;6666;51.626;7.530;2023-02-10T05:08:39;46.55;;;20.27;;
13202;SDS011;6666;51.626;7.530;2023-02-10T05:11:08;41.13;;;19.17;;
13202;SDS011;6666;51.626;7.530;2023-02-10T05:13:37;41.63;;;19.98;;
13202;SDS011;6666;51.626;7.530;2023-02-10T05:16:06;48.65;;;20.63;;
13202;SDS011;6666;51.626;7.530;2023-02-10T05:18:36;45.95;;;20.00;;
13202;SDS011;6666;51.626;7.530;2023-02-10T05:21:05;46.38;;;21.00;;
13202;SDS011;6666;51.626;7.530;2023-02-10T05:23:36;40.92;;;19.45;;
13202;SDS011;6666;51.626;7.530;2023-02-10T05:26:04;42.35;;;19.50;;
13202;SDS011;6666;51.626;7.530;2023-02-10T05:28:32;43.95;;;20.70;;
13202;SDS011;6666;51.626;7.530;2023-02-10T05:31:01;41.33;;;19.42;;
13202;SDS011;6666;51.626;7.530;2023-02-10T05:33:33;44.63;;;19.33;;
13202;SDS011;6666;51.626;7.530;2023-02-10T05:36:01;49.15;;;22.55;;
13202;SDS011;6666;51.626;7.530;2023-02-10T05:38:31;42.53;;;19.40;;
13202;SDS011;6666;51.626;7.530;2023-02-10T05:41:01;47.33;;;20.73;;
13202;SDS011;6666;51.626;7.530;2023-02-10T05:43:29;46.80;;;20.30;;
13202;SDS011;6666;51.626;7.530;2023-02-10T05:45:57;51.97;;;20.27;;
13202;SDS011;6666;51.626;7.530;2023-02-10T05:48:26;47.23;;;21.13;;
13202;SDS011;6666;51.626;7.530;2023-02-10T05:50:54;56.05;;;21.42;;
13202;SDS011;6666;51.626;7.530;2023-02-10T05:53:24;44.72;;;21.40;;
13202;SDS011;6666;51.626;7.530;2023-02-10T05:55:52;44.88;;;21.27;;
13202;SDS011;6666;51.626;7.530;2023-02-10T05:58:22;44.57;;;20.37;;
13202;SDS011;6666;51.626;7.530;2023-02-10T06:00:50;44.90;;;20.92;;
13202;SDS011;6666;51.626;7.530;2023-02-10T06:03:18;48.90;;;21.00;;
13202;SDS011;6666;51.626;7.530;2023-02-10T06:05:47;48.23;;;20.10;;
13202;SDS011;6666;51.626;7.530;2023-02-10T06:08:16;48.35;;;19.80;;
13202;SDS011;6666;51.626;7.530;2023-02-10T06:10:44;45.83;;;20.43;;
13202;SDS011;6666;51.626;7.530;2023-02-10T06:13:13;46.88;;;20.80;;
13202;SDS011;6666;51.626;7.530;2023-02-10T06:15:43;42.55;;;20.02;;
13202;SDS011;6666;51.626;7.530;2023-02-10T06:18:11;38.60;;;19.02;;
13202;SDS011;6666;51.626;7.530;2023-02-10T06:20:39;43.00;;;20.67;;
13202;SDS011;6666;51.626;7.530;2023-02-10T06:23:08;46.85;;;20.88;;
13202;SDS011;6666;51.626;7.530;2023-02-10T06:25:36;43.97;;;20.30;;
13202;SDS011;6666;51.626;7.530;2023-02-10T06:28:05;43.10;;;19.27;;
13202;SDS011;6666;51.626;7.530;2023-02-10T06:30:33;47.17;;;20.42;;
13202;SDS011;6666;51.626;7.530;2023-02-10T06:33:03;41.03;;;18.98;;
13202;SDS011;6666;51.626;7.530;2023-02-10T06:35:32;44.60;;;20.27;;
13202;SDS011;6666;51.626;7.530;2023-02-10T06:38:00;38.22;;;18.75;;
13202;SDS011;6666;51.626;7.530;2023-02-10T06:40:28;42.88;;;19.15;;
13202;SDS011;6666;51.626;7.530;2023-02-10T06:42:57;40.75;;;19.75;;
13202;SDS011;6666;51.626;7.530;2023-02-10T06:45:27;43.70;;;19.90;;
13202;SDS011;6666;51.626;7.530;2023-02-10T06:47:56;43.05;;;20.35;;
13202;SDS011;6666;51.626;7.530;2023-02-10T06:50:25;39.95;;;19.05;;
13202;SDS011;6666;51.626;7.530;2023-02-10T06:52:54;42.60;;;19.35;;
13202;SDS011;6666;51.626;7.530;2023-02-10T06:55:22;45.83;;;19.75;;
13202;SDS011;6666;51.626;7.530;2023-02-10T06:57:50;44.53;;;19.73;;
13202;SDS011;6666;51.626;7.530;2023-02-10T07:00:19;39.10;;;19.08;;
13202;SDS011;6666;51.626;7.530;2023-02-10T07:02:47;39.60;;;18.90;;
13202;SDS011;6666;51.626;7.530;2023-02-10T07:05:15;36.20;;;18.08;;
13202;SDS011;6666;51.626;7.530;2023-02-10T07:07:45;38.97;;;19.48;;
13202;SDS011;6666;51.626;7.530;2023-02-10T07:10:13;43.60;;;19.65;;
13202;SDS011;6666;51.626;7.530;2023-02-10T07:12:42;41.08;;;18.70;;
13202;SDS011;6666;51.626;7.530;2023-02-10T07:15:10;45.27;;;20.00;;
13202;SDS011;6666;51.626;7.530;2023-02-10T07:17:39;47.85;;;19.95;;
13202;SDS011;6666;51.626;7.530;2023-02-10T07:20:07;45.78;;;19.67;;
13202;SDS011;6666;51.626;7.530;2023-02-10T07:22:36;44.97;;;20.83;;
13202;SDS011;6666;51.626;7.530;2023-02-10T07:25:06;45.90;;;21.55;;
13202;SDS011;6666;51.626;7.530;2023-02-10T07:27:37;45.50;;;20.35;;
13202;SDS011;6666;51.626;7.530;2023-02-10T07:30:05;43.17;;;20.75;;
13202;SDS011;6666;51.626;7.530;2023-02-10T07:32:35;44.65;;;21.00;;
13202;SDS011;6666;51.626;7.530;2023-02-10T07:35:03;43.05;;;20.55;;
13202;SDS011;6666;51.626;7.530;2023-02-10T07:37:32;45.97;;;19.90;;
13202;SDS011;6666;51.626;7.530;2023-02-10T07:40:00;43.55;;;18.42;;
13202;SDS011;6666;51.626;7.530;2023-02-10T07:42:30;46.72;;;20.05;;
13202;SDS011;6666;51.626;7.530;2023-02-10T07:45:18;46.63;;;19.92;;
13202;SDS011;6666;51.626;7.530;2023-02-10T07:47:46;39.92;;;19.20;;
13202;SDS011;6666;51.626;7.530;2023-02-10T07:50:14;43.40;;;19.67;;
13202;SDS011;6666;51.626;7.530;2023-02-10T07:52:43;43.67;;;20.52;;
13202;SDS011;6666;51.626;7.530;2023-02-10T07:55:11;44.37;;;20.10;;
13202;SDS011;6666;51.626;7.530;2023-02-10T07:57:41;45.57;;;19.57;;
13202;SDS011;6666;51.626;7.530;2023-02-10T08:00:10;38.92;;;19.52;;
13202;SDS011;6666;51.626;7.530;2023-02-10T08:02:40;45.07;;;19.80;;
13202;SDS011;6666;51.626;7.530;2023-02-10T08:05:08;44.58;;;19.45;;
13202;SDS011;6666;51.626;7.530;2023-02-10T08:07:37;45.90;;;20.92;;
13202;SDS011;6666;51.626;7.530;2023-02-10T08:10:05;42.25;;;19.27;;
13202;SDS011;6666;51.626;7.530;2023-02-10T08:12:34;52.00;;;20.40;;
13202;SDS011;6666;51.626;7.530;2023-02-10T08:15:05;41.40;;;18.50;;
13202;SDS011;6666;51.626;7.530;2023-02-10T08:17:34;47.35;;;19.77;;
13202;SDS011;6666;51.626;7.530;2023-02-10T08:20:03;41.70;;;20.10;;
13202;SDS011;6666;51.626;7.530;2023-02-10T08:22:32;48.13;;;20.55;;
13202;SDS011;6666;51.626;7.530;2023-02-10T08:25:01;40.67;;;19.20;;
13202;SDS011;6666;51.626;7.530;2023-02-10T08:27:29;42.55;;;19.45;;
13202;SDS011;6666;51.626;7.530;2023-02-10T08:29:57;39.60;;;18.92;;
13202;SDS011;6666;51.626;7.530;2023-02-10T08:32:27;39.28;;;18.27;;
13202;SDS011;6666;51.626;7.530;2023-02-10T08:34:55;42.58;;;19.55;;
13202;SDS011;6666;51.626;7.530;2023-02-10T08:37:24;43.30;;;20.10;;
13202;SDS011;6666;51.626;7.530;2023-02-10T08:39:52;41.92;;;19.98;;
13202;SDS011;6666;51.626;7.530;2023-02-10T08:42:20;39.70;;;19.10;;
13202;SDS011;6666;51.626;7.530;2023-02-10T08:44:49;37.38;;;17.80;;
13202;SDS011;6666;51.626;7.530;2023-02-10T08:47:17;41.90;;;19.45;;
13202;SDS011;6666;51.626;7.530;2023-02-10T08:49:47;41.17;;;19.08;;
13202;SDS011;6666;51.626;7.530;2023-02-10T08:52:15;46.33;;;19.77;;
13202;SDS011;6666;51.626;7.530;2023-02-10T08:54:43;44.30;;;18.95;;
13202;SDS011;6666;51.626;7.530;2023-02-10T08:57:11;44.35;;;19.13;;
13202;SDS011;6666;51.626;7.530;2023-02-10T08:59:40;42.25;;;19.40;;
13202;SDS011;6666;51.626;7.530;2023-02-10T09:02:09;44.28;;;20.50;;
13202;SDS011;6666;51.626;7.530;2023-02-10T09:04:38;44.57;;;19.20;;
13202;SDS011;6666;51.626;7.530;2023-02-10T09:07:08;38.13;;;19.77;;
13202;SDS011;6666;51.626;7.530;2023-02-10T09:09:39;43.53;;;19.00;;
13202;SDS011;6666;51.626;7.530;2023-02-10T09:12:09;41.75;;;19.60;;
13202;SDS011;6666;51.626;7.530;2023-02-10T09:14:38;40.20;;;19.73;;
13202;SDS011;6666;51.626;7.530;2023-02-10T09:17:07;45.83;;;18.35;;
13202;SDS011;6666;51.626;7.530;2023-02-10T09:19:38;42.67;;;20.05;;
13202;SDS011;6666;51.626;7.530;2023-02-10T09:22:09;42.70;;;19.17;;
13202;SDS011;6666;51.626;7.530;2023-02-10T09:24:37;47.80;;;20.40;;
13202;SDS011;6666;51.626;7.530;2023-02-10T09:27:06;45.70;;;19.30;;
13202;SDS011;6666;51.626;7.530;2023-02-10T09:29:34;40.70;;;18.53;;
13202;SDS011;6666;51.626;7.530;2023-02-10T09:32:02;41.85;;;20.42;;
13202;SDS011;6666;51.626;7.530;2023-02-10T09:34:31;45.58;;;19.25;;
13202;SDS011;6666;51.626;7.530;2023-02-10T09:36:59;43.10;;;19.50;;
13202;SDS011;6666;51.626;7.530;2023-02-10T09:39:30;48.75;;;21.00;;
13202;SDS011;6666;51.626;7.530;2023-02-10T09:42:01;43.90;;;19.33;;
13202;SDS011;6666;51.626;7.530;2023-02-10T09:44:36;44.28;;;19.95;;
13202;SDS011;6666;51.626;7.530;2023-02-10T09:47:13;38.03;;;18.02;;
13202;SDS011;6666;51.626;7.530;2023-02-10T09:49:54;38.85;;;17.60;;
13202;SDS011;6666;51.626;7.530;2023-02-10T09:52:36;48.08;;;19.30;;
13202;SDS011;6666;51.626;7.530;2023-02-10T09:55:20;41.03;;;19.02;;
13202;SDS011;6666;51.626;7.530;2023-02-10T09:57:54;41.50;;;19.35;;
13202;SDS011;6666;51.626;7.530;2023-02-10T10:00:27;44.35;;;20.08;;
13202;SDS011;6666;51.626;7.530;2023-02-10T10:03:00;38.63;;;18.77;;
13202;SDS011;6666;51.626;7.530;2023-02-10T10:05:44;44.42;;;18.45;;
13202;SDS011;6666;51.626;7.530;2023-02-10T10:08:21;39.05;;;17.58;;
13202;SDS011;6666;51.626;7.530;2023-02-10T10:10:58;38.70;;;18.02;;
13202;SDS011;6666;51.626;7.530;2023-02-10T10:13:31;41.05;;;18.50;;
13202;SDS011;6666;51.626;7.530;2023-02-10T10:16:09;41.35;;;18.10;;
13202;SDS011;6666;51.626;7.530;2023-02-10T10:18:47;39.10;;;19.20;;
13202;SDS011;6666;51.626;7.530;2023-02-10T10:21:31;40.17;;;18.90;;
13202;SDS011;6666;51.626;7.530;2023-02-10T10:24:13;42.38;;;19.20;;
13202;SDS011;6666;51.626;7.530;2023-02-10T10:26:57;39.47;;;19.52;;
13202;SDS011;6666;51.626;7.530;2023-02-10T10:29:39;41.38;;;18.73;;
13202;SDS011;6666;51.626;7.530;2023-02-10T10:32:23;43.55;;;18.95;;
13202;SDS011;6666;51.626;7.530;2023-02-10T10:35:00;48.33;;;19.83;;
13202;SDS011;6666;51.626;7.530;2023-02-10T10:37:31;44.10;;;19.38;;
13202;SDS011;6666;51.626;7.530;2023-02-10T10:40:00;37.35;;;18.48;;
13202;SDS011;6666;51.626;7.530;2023-02-10T10:42:37;38.10;;;18.20;;
13202;SDS011;6666;51.626;7.530;2023-02-10T10:45:12;37.13;;;17.50;;
13202;SDS011;6666;51.626;7.530;2023-02-10T10:47:43;36.65;;;16.77;;
13202;SDS011;6666;51.626;7.530;2023-02-10T10:50:15;36.40;;;17.30;;
13202;SDS011;6666;51.626;7.530;2023-02-10T10:52:46;35.42;;;17.20;;
13202;SDS011;6666;51.626;7.530;2023-02-10T10:55:19;42.85;;;17.27;;
13202;SDS011;6666;51.626;7.530;2023-02-10T10:57:52;44.75;;;18.15;;
13202;SDS011;6666;51.626;7.530;2023-02-10T11:00:26;39.75;;;17.60;;
13202;SDS011;6666;51.626;7.530;2023-02-10T11:02:57;38.35;;;16.55;;
13202;SDS011;6666;51.626;7.530;2023-02-10T11:05:30;38.72;;;17.55;;
13202;SDS011;6666;51.626;7.530;2023-02-10T11:07:59;33.38;;;16.35;;
13202;SDS011;6666;51.626;7.530;2023-02-10T11:10:32;41.00;;;17.00;;
13202;SDS011;6666;51.626;7.530;2023-02-10T11:13:11;36.00;;;15.23;;
13202;SDS011;6666;51.626;7.530;2023-02-10T11:15:44;35.80;;;15.30;;
13202;SDS011;6666;51.626;7.530;2023-02-10T11:18:16;35.22;;;15.52;;
13202;SDS011;6666;51.626;7.530;2023-02-10T11:20:52;34.13;;;15.55;;
13202;SDS011;6666;51.626;7.530;2023-02-10T11:23:22;35.40;;;16.70;;
13202;SDS011;6666;51.626;7.530;2023-02-10T11:25:59;36.33;;;16.65;;
13202;SDS011;6666;51.626;7.530;2023-02-10T11:28:31;38.47;;;15.95;;
13202;SDS011;6666;51.626;7.530;2023-02-10T11:31:03;37.53;;;16.60;;
13202;SDS011;6666;51.626;7.530;2023-02-10T11:33:34;37.08;;;17.15;;
13202;SDS011;6666;51.626;7.530;2023-02-10T11:36:04;38.15;;;16.08;;
13202;SDS011;6666;51.626;7.530;2023-02-10T11:38:35;35.08;;;15.43;;
13202;SDS011;6666;51.626;7.530;2023-02-10T11:41:04;36.17;;;16.27;;
13202;SDS011;6666;51.626;7.530;2023-02-10T11:43:37;39.55;;;16.45;;
13202;SDS011;6666;51.626;7.530;2023-02-10T11:46:16;39.67;;;16.88;;
13202;SDS011;6666;51.626;7.530;2023-02-10T11:48:51;33.70;;;16.30;;
13202;SDS011;6666;51.626;7.530;2023-02-10T11:51:21;38.40;;;16.90;;
13202;SDS011;6666;51.626;7.530;2023-02-10T11:53:51;30.52;;;15.30;;
13202;SDS011;6666;51.626;7.530;2023-02-10T11:56:20;37.45;;;16.50;;
13202;SDS011;6666;51.626;7.530;2023-02-10T11:59:22;34.60;;;16.58;;
13202;SDS011;6666;51.626;7.530;2023-02-10T12:01:57;36.55;;;17.80;;
13202;SDS011;6666;51.626;7.530;2023-02-10T12:04:34;39.60;;;16.05;;
13202;SDS011;6666;51.626;7.530;2023-02-10T12:07:25;37.38;;;16.23;;
13202;SDS011;6666;51.626;7.530;2023-02-10T12:10:05;36.35;;;17.35;;
13202;SDS011;6666;51.626;7.530;2023-02-10T12:12:43;33.40;;;17.10;;
13202;SDS011;6666;51.626;7.530;2023-02-10T12:15:18;31.80;;;16.67;;
13202;SDS011;6666;51.626;7.530;2023-02-10T12:17:57;33.70;;;16.75;;
13202;SDS011;6666;51.626;7.530;2023-02-10T12:20:38;33.88;;;16.58;;
13202;SDS011;6666;51.626;7.530;2023-02-10T12:23:29;34.88;;;16.40;;
13202;SDS011;6666;51.626;7.530;2023-02-10T12:26:07;38.65;;;18.08;;
13202;SDS011;6666;51.626;7.530;2023-02-10T12:28:46;30.67;;;16.33;;
13202;SDS011;6666;51.626;7.530;2023-02-10T12:31:28;36.60;;;16.98;;
13202;SDS011;6666;51.626;7.530;2023-02-10T12:37:01;31.40;;;14.90;;
13202;SDS011;6666;51.626;7.530;2023-02-10T12:39:41;29.23;;;14.17;;
13202;SDS011;6666;51.626;7.530;2023-02-10T12:42:19;37.95;;;15.30;;
13202;SDS011;6666;51.626;7.530;2023-02-10T12:45:04;35.88;;;15.20;;
13202;SDS011;6666;51.626;7.530;2023-02-10T12:47:41;29.77;;;14.00;;
13202;SDS011;6666;51.626;7.530;2023-02-10T12:50:25;29.42;;;14.40;;
13202;SDS011;6666;51.626;7.530;2023-02-10T12:53:01;27.38;;;13.68;;
13202;SDS011;6666;51.626;7.530;2023-02-10T12:55:37;33.70;;;14.73;;
13202;SDS011;6666;51.626;7.530;2023-02-10T12:58:12;36.75;;;15.77;;
13202;SDS011;6666;51.626;7.530;2023-02-10T13:00:45;31.15;;;14.48;;
13202;SDS011;6666;51.626;7.530;2023-02-10T13:03:19;33.30;;;14.40;;
13202;SDS011;6666;51.626;7.530;2023-02-10T13:05:54;25.77;;;13.52;;
13202;SDS011;6666;51.626;7.530;2023-02-10T13:08:29;26.58;;;13.70;;
13202;SDS011;6666;51.626;7.530;2023-02-10T13:11:01;29.20;;;12.60;;
13202;SDS011;6666;51.626;7.530;2023-02-10T13:13:35;26.60;;;12.32;;
13202;SDS011;6666;51.626;7.530;2023-02-10T13:16:08;28.13;;;13.45;;
13202;SDS011;6666;51.626;7.530;2023-02-10T13:18:42;27.70;;;12.80;;
13202;SDS011;6666;51.626;7.530;2023-02-10T13:21:22;27.02;;;12.77;;
13202;SDS011;6666;51.626;7.530;2023-02-10T13:23:56;30.38;;;14.05;;
13202;SDS011;6666;51.626;7.530;2023-02-10T13:26:36;29.42;;;13.75;;
13202;SDS011;6666;51.626;7.530;2023-02-10T13:29:15;24.85;;;12.95;;
13202;SDS011;6666;51.626;7.530;2023-02-10T13:31:54;23.02;;;12.00;;
13202;SDS011;6666;51.626;7.530;2023-02-10T13:34:31;26.70;;;12.70;;
13202;SDS011;6666;51.626;7.530;2023-02-10T13:37:03;26.45;;;12.02;;
13202;SDS011;6666;51.626;7.530;2023-02-10T13:39:35;30.00;;;12.43;;
13202;SDS011;6666;51.626;7.530;2023-02-10T13:42:09;30.42;;;11.95;;
13202;SDS011;6666;51.626;7.530;2023-02-10T13:44:44;29.02;;;12.57;;
13202;SDS011;6666;51.626;7.530;2023-02-10T13:47:14;28.35;;;12.65;;
13202;SDS011;6666;51.626;7.530;2023-02-10T13:49:54;23.35;;;11.70;;
13202;SDS011;6666;51.626;7.530;2023-02-10T13:52:27;28.77;;;12.30;;
13202;SDS011;6666;51.626;7.530;2023-02-10T13:54:59;23.65;;;11.60;;
13202;SDS011;6666;51.626;7.530;2023-02-10T13:57:32;32.03;;;11.93;;
13202;SDS011;6666;51.626;7.530;2023-02-10T14:00:14;28.30;;;12.23;;
13202;SDS011;6666;51.626;7.530;2023-02-10T14:02:44;24.85;;;11.68;;
13202;SDS011;6666;51.626;7.530;2023-02-10T14:05:27;25.17;;;11.30;;
13202;SDS011;6666;51.626;7.530;2023-02-10T14:07:58;23.23;;;12.00;;
13202;SDS011;6666;51.626;7.530;2023-02-10T14:10:27;22.83;;;11.20;;
13202;SDS011;6666;51.626;7.530;2023-02-10T14:13:01;24.50;;;11.68;;
13202;SDS011;6666;51.626;7.530;2023-02-10T14:15:33;24.75;;;11.20;;
13202;SDS011;6666;51.626;7.530;2023-02-10T14:18:04;31.02;;;12.05;;
13202;SDS011;6666;51.626;7.530;2023-02-10T14:20:54;28.80;;;11.70;;
13202;SDS011;6666;51.626;7.530;2023-02-10T14:23:24;23.97;;;10.93;;
13202;SDS011;6666;51.626;7.530;2023-02-10T14:25:56;27.35;;;11.75;;
13202;SDS011;6666;51.626;7.530;2023-02-10T14:28:27;22.27;;;10.57;;
13202;SDS011;6666;51.626;7.530;2023-02-10T14:30:59;27.23;;;11.40;;
13202;SDS011;6666;51.626;7.530;2023-02-10T14:33:33;22.55;;;11.13;;
13202;SDS011;6666;51.626;7.530;2023-02-10T14:36:06;25.90;;;11.50;;
13202;SDS011;6666;51.626;7.530;2023-02-10T14:38:42;39.07;;;11.90;;
13202;SDS011;6666;51.626;7.530;2023-02-10T14:41:12;26.95;;;10.50;;
13202;SDS011;6666;51.626;7.530;2023-02-10T14:43:47;20.45;;;10.52;;
13202;SDS011;6666;51.626;7.530;2023-02-10T14:46:19;23.48;;;10.73;;
13202;SDS011;6666;51.626;7.530;2023-02-10T14:48:50;20.35;;;9.60;;
13202;SDS011;6666;51.626;7.530;2023-02-10T14:51:29;21.77;;;9.20;;
13202;SDS011;6666;51.626;7.530;2023-02-10T14:54:06;19.90;;;9.30;;
13202;SDS011;6666;51.626;7.530;2023-02-10T14:56:36;19.93;;;8.77;;
13202;SDS011;6666;51.626;7.530;2023-02-10T14:59:04;18.95;;;8.55;;
13202;SDS011;6666;51.626;7.530;2023-02-10T15:01:44;19.50;;;8.80;;
13202;SDS011;6666;51.626;7.530;2023-02-10T15:04:14;16.98;;;7.97;;
13202;SDS011;6666;51.626;7.530;2023-02-10T15:06:45;20.00;;;9.20;;
13202;SDS011;6666;51.626;7.530;2023-02-10T15:09:16;19.67;;;10.00;;